sensor_id;sensor_type;location;lat;lon;timestamp;temperature;humidity
65371;DHT22;58485;59.934;30.352;2022-09-02T00:00:43;24.69;43.97
65371;DHT22;58485;59.934;30.352;2022-09-02T00:01:37;24.69;43.97
65371;DHT22;58485;59.934;30.352;2022-09-02T00:02:30;24.69;44.00
65371;DHT22;58485;59.934;30.352;2022-09-02T00:03:21;24.68;44.01
65371;DHT22;58485;59.934;30.352;2022-09-02T00:04:16;24.68;44.00
65371;DHT22;58485;59.934;30.352;2022-09-02T00:05:11;24.69;43.98
65371;DHT22;58485;59.934;30.352;2022-09-02T00:06:03;24.66;43.98
65371;DHT22;58485;59.934;30.352;2022-09-02T00:06:55;24.66;43.98
65371;DHT22;58485;59.934;30.352;2022-09-02T00:07:47;24.66;43.99
65371;DHT22;58485;59.934;30.352;2022-09-02T00:08:39;24.65;43.96
65371;DHT22;58485;59.934;30.352;2022-09-02T00:09:33;24.65;43.97
65371;DHT22;58485;59.934;30.352;2022-09-02T00:10:24;24.63;44.03
65371;DHT22;58485;59.934;30.352;2022-09-02T00:11:20;24.64;43.96
65371;DHT22;58485;59.934;30.352;2022-09-02T00:12:12;24.64;44.02
65371;DHT22;58485;59.934;30.352;2022-09-02T00:13:07;24.63;44.05
65371;DHT22;58485;59.934;30.352;2022-09-02T00:14:00;24.64;44.09
65371;DHT22;58485;59.934;30.352;2022-09-02T00:14:53;24.63;44.06
65371;DHT22;58485;59.934;30.352;2022-09-02T00:15:45;24.62;44.06
65371;DHT22;58485;59.934;30.352;2022-09-02T00:16:36;24.62;44.05
65371;DHT22;58485;59.934;30.352;2022-09-02T00:17:28;24.64;44.06
65371;DHT22;58485;59.934;30.352;2022-09-02T00:18:20;24.63;44.08
65371;DHT22;58485;59.934;30.352;2022-09-02T00:19:13;24.62;44.04
65371;DHT22;58485;59.934;30.352;2022-09-02T00:20:05;24.61;44.06
65371;DHT22;58485;59.934;30.352;2022-09-02T00:20:58;24.62;44.01
65371;DHT22;58485;59.934;30.352;2022-09-02T00:21:51;24.62;43.97
65371;DHT22;58485;59.934;30.352;2022-09-02T00:22:44;24.61;43.93
65371;DHT22;58485;59.934;30.352;2022-09-02T00:23:35;24.60;43.93
65371;DHT22;58485;59.934;30.352;2022-09-02T00:24:29;24.60;43.93
65371;DHT22;58485;59.934;30.352;2022-09-02T00:25:22;24.60;43.91
65371;DHT22;58485;59.934;30.352;2022-09-02T00:26:14;24.61;43.96
65371;DHT22;58485;59.934;30.352;2022-09-02T00:27:06;24.61;43.97
65371;DHT22;58485;59.934;30.352;2022-09-02T00:27:58;24.59;43.95
65371;DHT22;58485;59.934;30.352;2022-09-02T00:28:49;24.60;43.97
65371;DHT22;58485;59.934;30.352;2022-09-02T00:29:42;24.59;43.97
65371;DHT22;58485;59.934;30.352;2022-09-02T00:30:33;24.59;43.97
65371;DHT22;58485;59.934;30.352;2022-09-02T00:31:26;24.58;43.98
65371;DHT22;58485;59.934;30.352;2022-09-02T00:32:18;24.58;43.96
65371;DHT22;58485;59.934;30.352;2022-09-02T00:33:11;24.59;43.96
65371;DHT22;58485;59.934;30.352;2022-09-02T00:34:03;24.59;43.94
65371;DHT22;58485;59.934;30.352;2022-09-02T00:34:56;24.57;43.97
65371;DHT22;58485;59.934;30.352;2022-09-02T00:35:48;24.57;43.95
65371;DHT22;58485;59.934;30.352;2022-09-02T00:36:41;24.57;43.99
65371;DHT22;58485;59.934;30.352;2022-09-02T00:37:32;24.59;44.00
65371;DHT22;58485;59.934;30.352;2022-09-02T00:38:24;24.57;44.00
65371;DHT22;58485;59.934;30.352;2022-09-02T00:39:16;24.57;44.01
65371;DHT22;58485;59.934;30.352;2022-09-02T00:40:10;24.56;44.02
65371;DHT22;58485;59.934;30.352;2022-09-02T00:41:05;24.56;43.97
65371;DHT22;58485;59.934;30.352;2022-09-02T00:41:59;24.55;44.03
65371;DHT22;58485;59.934;30.352;2022-09-02T00:42:51;24.55;44.03
65371;DHT22;58485;59.934;30.352;2022-09-02T00:43:45;24.56;44.03
65371;DHT22;58485;59.934;30.352;2022-09-02T00:44:38;24.55;44.06
65371;DHT22;58485;59.934;30.352;2022-09-02T00:45:31;24.55;44.04
65371;DHT22;58485;59.934;30.352;2022-09-02T00:46:24;24.54;44.04
65371;DHT22;58485;59.934;30.352;2022-09-02T00:47:17;24.53;44.03
65371;DHT22;58485;59.934;30.352;2022-09-02T00:48:08;24.54;44.05
65371;DHT22;58485;59.934;30.352;2022-09-02T00:49:03;24.53;44.02
65371;DHT22;58485;59.934;30.352;2022-09-02T00:49:58;24.54;44.03
65371;DHT22;58485;59.934;30.352;2022-09-02T00:50:51;24.51;44.02
65371;DHT22;58485;59.934;30.352;2022-09-02T00:51:44;24.51;44.02
65371;DHT22;58485;59.934;30.352;2022-09-02T00:52:40;24.51;44.01
65371;DHT22;58485;59.934;30.352;2022-09-02T00:53:34;24.50;44.05
65371;DHT22;58485;59.934;30.352;2022-09-02T00:54:30;24.50;44.05
65371;DHT22;58485;59.934;30.352;2022-09-02T00:55:24;24.50;44.01
65371;DHT22;58485;59.934;30.352;2022-09-02T00:56:22;24.49;44.00
65371;DHT22;58485;59.934;30.352;2022-09-02T00:57:18;24.48;44.03
65371;DHT22;58485;59.934;30.352;2022-09-02T00:58:15;24.49;44.02
65371;DHT22;58485;59.934;30.352;2022-09-02T00:59:09;24.48;44.03
65371;DHT22;58485;59.934;30.352;2022-09-02T01:00:08;24.46;44.05
65371;DHT22;58485;59.934;30.352;2022-09-02T01:01:01;24.46;44.03
65371;DHT22;58485;59.934;30.352;2022-09-02T01:01:53;24.47;44.01
65371;DHT22;58485;59.934;30.352;2022-09-02T01:02:47;24.46;44.06
65371;DHT22;58485;59.934;30.352;2022-09-02T01:03:40;24.45;44.10
65371;DHT22;58485;59.934;30.352;2022-09-02T01:04:32;24.47;44.09
65371;DHT22;58485;59.934;30.352;2022-09-02T01:05:26;24.45;44.09
65371;DHT22;58485;59.934;30.352;2022-09-02T01:06:21;24.46;44.13
65371;DHT22;58485;59.934;30.352;2022-09-02T01:07:15;24.46;44.13
65371;DHT22;58485;59.934;30.352;2022-09-02T01:08:06;24.46;44.16
65371;DHT22;58485;59.934;30.352;2022-09-02T01:09:03;24.45;44.15
65371;DHT22;58485;59.934;30.352;2022-09-02T01:09:58;24.45;44.16
65371;DHT22;58485;59.934;30.352;2022-09-02T01:10:51;24.45;44.17
65371;DHT22;58485;59.934;30.352;2022-09-02T01:11:48;24.44;44.12
65371;DHT22;58485;59.934;30.352;2022-09-02T01:12:43;24.44;44.14
65371;DHT22;58485;59.934;30.352;2022-09-02T01:13:36;24.44;44.12
65371;DHT22;58485;59.934;30.352;2022-09-02T01:14:29;24.44;44.14
65371;DHT22;58485;59.934;30.352;2022-09-02T01:15:21;24.44;44.13
65371;DHT22;58485;59.934;30.352;2022-09-02T01:16:20;24.46;44.09
65371;DHT22;58485;59.934;30.352;2022-09-02T01:17:14;24.44;44.11
65371;DHT22;58485;59.934;30.352;2022-09-02T01:18:12;24.44;44.11
65371;DHT22;58485;59.934;30.352;2022-09-02T01:19:10;24.44;44.03
65371;DHT22;58485;59.934;30.352;2022-09-02T01:20:10;24.43;44.03
65371;DHT22;58485;59.934;30.352;2022-09-02T01:21:03;24.44;44.07
65371;DHT22;58485;59.934;30.352;2022-09-02T01:21:58;24.43;44.09
65371;DHT22;58485;59.934;30.352;2022-09-02T01:22:50;24.42;44.06
65371;DHT22;58485;59.934;30.352;2022-09-02T01:23:42;24.43;44.06
65371;DHT22;58485;59.934;30.352;2022-09-02T01:24:34;24.42;44.05
65371;DHT22;58485;59.934;30.352;2022-09-02T01:25:28;24.42;44.08
65371;DHT22;58485;59.934;30.352;2022-09-02T01:26:21;24.42;44.04
65371;DHT22;58485;59.934;30.352;2022-09-02T01:27:14;24.42;44.00
65371;DHT22;58485;59.934;30.352;2022-09-02T01:28:08;24.42;44.03
65371;DHT22;58485;59.934;30.352;2022-09-02T01:29:01;24.42;44.03
65371;DHT22;58485;59.934;30.352;2022-09-02T01:29:56;24.41;44.01
65371;DHT22;58485;59.934;30.352;2022-09-02T01:30:50;24.42;44.02
65371;DHT22;58485;59.934;30.352;2022-09-02T01:31:43;24.41;44.06
65371;DHT22;58485;59.934;30.352;2022-09-02T01:32:35;24.41;44.05
65371;DHT22;58485;59.934;30.352;2022-09-02T01:33:27;24.42;44.06
65371;DHT22;58485;59.934;30.352;2022-09-02T01:34:20;24.41;44.06
65371;DHT22;58485;59.934;30.352;2022-09-02T01:35:12;24.41;44.05
65371;DHT22;58485;59.934;30.352;2022-09-02T01:36:05;24.40;44.06
65371;DHT22;58485;59.934;30.352;2022-09-02T01:36:59;24.41;44.01
65371;DHT22;58485;59.934;30.352;2022-09-02T01:37:54;24.40;43.96
65371;DHT22;58485;59.934;30.352;2022-09-02T01:38:47;24.41;43.96
65371;DHT22;58485;59.934;30.352;2022-09-02T01:39:39;24.40;43.98
65371;DHT22;58485;59.934;30.352;2022-09-02T01:40:31;24.41;44.01
65371;DHT22;58485;59.934;30.352;2022-09-02T01:41:23;24.39;44.03
65371;DHT22;58485;59.934;30.352;2022-09-02T01:42:15;24.39;44.04
65371;DHT22;58485;59.934;30.352;2022-09-02T01:43:08;24.38;44.03
65371;DHT22;58485;59.934;30.352;2022-09-02T01:44:03;24.40;44.04
65371;DHT22;58485;59.934;30.352;2022-09-02T01:44:55;24.36;44.06
65371;DHT22;58485;59.934;30.352;2022-09-02T01:45:49;24.39;44.02
65371;DHT22;58485;59.934;30.352;2022-09-02T01:46:41;24.38;44.00
65371;DHT22;58485;59.934;30.352;2022-09-02T01:47:35;24.38;44.00
65371;DHT22;58485;59.934;30.352;2022-09-02T01:48:27;24.38;44.04
65371;DHT22;58485;59.934;30.352;2022-09-02T01:49:19;24.38;44.04
65371;DHT22;58485;59.934;30.352;2022-09-02T01:50:11;24.36;44.06
65371;DHT22;58485;59.934;30.352;2022-09-02T01:51:04;24.36;44.07
65371;DHT22;58485;59.934;30.352;2022-09-02T01:51:55;24.36;44.06
65371;DHT22;58485;59.934;30.352;2022-09-02T01:52:49;24.36;44.10
65371;DHT22;58485;59.934;30.352;2022-09-02T01:53:40;24.36;44.06
65371;DHT22;58485;59.934;30.352;2022-09-02T01:54:32;24.35;44.06
65371;DHT22;58485;59.934;30.352;2022-09-02T01:55:24;24.35;44.05
65371;DHT22;58485;59.934;30.352;2022-09-02T01:56:16;24.35;44.03
65371;DHT22;58485;59.934;30.352;2022-09-02T01:57:08;24.34;44.03
65371;DHT22;58485;59.934;30.352;2022-09-02T01:58:00;24.34;44.00
65371;DHT22;58485;59.934;30.352;2022-09-02T01:58:51;24.33;43.96
65371;DHT22;58485;59.934;30.352;2022-09-02T01:59:43;24.34;43.98
65371;DHT22;58485;59.934;30.352;2022-09-02T02:00:35;24.33;44.02
65371;DHT22;58485;59.934;30.352;2022-09-02T02:01:28;24.34;44.00
65371;DHT22;58485;59.934;30.352;2022-09-02T02:02:19;24.32;43.99
65371;DHT22;58485;59.934;30.352;2022-09-02T02:03:13;24.34;44.00
65371;DHT22;58485;59.934;30.352;2022-09-02T02:04:04;24.34;44.00
65371;DHT22;58485;59.934;30.352;2022-09-02T02:04:56;24.33;43.98
65371;DHT22;58485;59.934;30.352;2022-09-02T02:05:47;24.33;43.98
65371;DHT22;58485;59.934;30.352;2022-09-02T02:06:41;24.33;43.96
65371;DHT22;58485;59.934;30.352;2022-09-02T02:07:33;24.32;43.98
65371;DHT22;58485;59.934;30.352;2022-09-02T02:08:27;24.32;43.97
65371;DHT22;58485;59.934;30.352;2022-09-02T02:09:18;24.32;43.95
65371;DHT22;58485;59.934;30.352;2022-09-02T02:10:14;24.32;43.96
65371;DHT22;58485;59.934;30.352;2022-09-02T02:11:05;24.32;43.96
65371;DHT22;58485;59.934;30.352;2022-09-02T02:11:58;24.31;43.93
65371;DHT22;58485;59.934;30.352;2022-09-02T02:12:50;24.31;43.95
65371;DHT22;58485;59.934;30.352;2022-09-02T02:13:42;24.32;43.93
65371;DHT22;58485;59.934;30.352;2022-09-02T02:14:33;24.31;43.96
65371;DHT22;58485;59.934;30.352;2022-09-02T02:15:26;24.31;43.92
65371;DHT22;58485;59.934;30.352;2022-09-02T02:16:17;24.31;43.89
65371;DHT22;58485;59.934;30.352;2022-09-02T02:17:10;24.31;43.89
65371;DHT22;58485;59.934;30.352;2022-09-02T02:18:01;24.30;43.91
65371;DHT22;58485;59.934;30.352;2022-09-02T02:18:54;24.32;43.92
65371;DHT22;58485;59.934;30.352;2022-09-02T02:19:45;24.31;43.90
65371;DHT22;58485;59.934;30.352;2022-09-02T02:20:37;24.30;43.90
65371;DHT22;58485;59.934;30.352;2022-09-02T02:21:29;24.30;43.93
65371;DHT22;58485;59.934;30.352;2022-09-02T02:22:21;24.30;43.96
65371;DHT22;58485;59.934;30.352;2022-09-02T02:23:13;24.30;43.96
65371;DHT22;58485;59.934;30.352;2022-09-02T02:24:07;24.30;44.00
65371;DHT22;58485;59.934;30.352;2022-09-02T02:24:58;24.30;43.98
65371;DHT22;58485;59.934;30.352;2022-09-02T02:25:51;24.29;43.98
65371;DHT22;58485;59.934;30.352;2022-09-02T02:26:42;24.29;43.96
65371;DHT22;58485;59.934;30.352;2022-09-02T02:27:34;24.29;44.00
65371;DHT22;58485;59.934;30.352;2022-09-02T02:28:25;24.27;44.00
65371;DHT22;58485;59.934;30.352;2022-09-02T02:29:18;24.29;43.99
65371;DHT22;58485;59.934;30.352;2022-09-02T02:30:11;24.29;43.96
65371;DHT22;58485;59.934;30.352;2022-09-02T02:31:05;24.27;43.96
65371;DHT22;58485;59.934;30.352;2022-09-02T02:31:56;24.28;43.95
65371;DHT22;58485;59.934;30.352;2022-09-02T02:32:48;24.27;43.92
65371;DHT22;58485;59.934;30.352;2022-09-02T02:33:40;24.28;43.95
65371;DHT22;58485;59.934;30.352;2022-09-02T02:34:32;24.27;43.93
65371;DHT22;58485;59.934;30.352;2022-09-02T02:35:23;24.26;43.95
65371;DHT22;58485;59.934;30.352;2022-09-02T02:36:16;24.26;43.96
65371;DHT22;58485;59.934;30.352;2022-09-02T02:37:07;24.27;43.98
65371;DHT22;58485;59.934;30.352;2022-09-02T02:38:02;24.26;43.93
65371;DHT22;58485;59.934;30.352;2022-09-02T02:38:53;24.26;43.91
65371;DHT22;58485;59.934;30.352;2022-09-02T02:39:47;24.26;43.90
65371;DHT22;58485;59.934;30.352;2022-09-02T02:40:38;24.25;43.89
65371;DHT22;58485;59.934;30.352;2022-09-02T02:41:30;24.26;43.88
65371;DHT22;58485;59.934;30.352;2022-09-02T02:42:22;24.25;43.90
65371;DHT22;58485;59.934;30.352;2022-09-02T02:43:14;24.25;43.93
65371;DHT22;58485;59.934;30.352;2022-09-02T02:44:07;24.24;43.90
65371;DHT22;58485;59.934;30.352;2022-09-02T02:45:00;24.24;43.92
65371;DHT22;58485;59.934;30.352;2022-09-02T02:45:51;24.24;43.93
65371;DHT22;58485;59.934;30.352;2022-09-02T02:46:44;24.24;43.93
65371;DHT22;58485;59.934;30.352;2022-09-02T02:47:37;24.25;43.94
65371;DHT22;58485;59.934;30.352;2022-09-02T02:48:30;24.23;43.93
65371;DHT22;58485;59.934;30.352;2022-09-02T02:49:21;24.23;43.93
65371;DHT22;58485;59.934;30.352;2022-09-02T02:50:15;24.24;43.96
65371;DHT22;58485;59.934;30.352;2022-09-02T02:51:07;24.23;43.94
65371;DHT22;58485;59.934;30.352;2022-09-02T02:52:00;24.23;43.92
65371;DHT22;58485;59.934;30.352;2022-09-02T02:52:51;24.23;43.89
65371;DHT22;58485;59.934;30.352;2022-09-02T02:53:44;24.21;43.90
65371;DHT22;58485;59.934;30.352;2022-09-02T02:54:36;24.24;43.94
65371;DHT22;58485;59.934;30.352;2022-09-02T02:55:29;24.21;44.00
65371;DHT22;58485;59.934;30.352;2022-09-02T02:56:21;24.23;43.95
65371;DHT22;58485;59.934;30.352;2022-09-02T02:57:12;24.21;43.96
65371;DHT22;58485;59.934;30.352;2022-09-02T02:58:05;24.21;43.93
65371;DHT22;58485;59.934;30.352;2022-09-02T02:58:57;24.20;43.94
65371;DHT22;58485;59.934;30.352;2022-09-02T02:59:52;24.20;43.92
65371;DHT22;58485;59.934;30.352;2022-09-02T03:00:44;24.20;43.90
65371;DHT22;58485;59.934;30.352;2022-09-02T03:01:36;24.20;43.92
65371;DHT22;58485;59.934;30.352;2022-09-02T03:02:27;24.20;43.91
65371;DHT22;58485;59.934;30.352;2022-09-02T03:03:23;24.20;43.90
65371;DHT22;58485;59.934;30.352;2022-09-02T03:04:15;24.20;43.90
65371;DHT22;58485;59.934;30.352;2022-09-02T03:05:08;24.19;43.92
65371;DHT22;58485;59.934;30.352;2022-09-02T03:06:00;24.20;43.93
65371;DHT22;58485;59.934;30.352;2022-09-02T03:06:53;24.19;43.93
65371;DHT22;58485;59.934;30.352;2022-09-02T03:07:44;24.19;43.96
65371;DHT22;58485;59.934;30.352;2022-09-02T03:08:36;24.19;43.92
65371;DHT22;58485;59.934;30.352;2022-09-02T03:09:27;24.19;43.93
65371;DHT22;58485;59.934;30.352;2022-09-02T03:10:21;24.19;43.91
65371;DHT22;58485;59.934;30.352;2022-09-02T03:11:15;24.19;43.90
65371;DHT22;58485;59.934;30.352;2022-09-02T03:12:07;24.19;43.90
65371;DHT22;58485;59.934;30.352;2022-09-02T03:12:58;24.19;43.92
65371;DHT22;58485;59.934;30.352;2022-09-02T03:13:51;24.18;43.90
65371;DHT22;58485;59.934;30.352;2022-09-02T03:14:42;24.18;43.89
65371;DHT22;58485;59.934;30.352;2022-09-02T03:15:35;24.18;43.89
65371;DHT22;58485;59.934;30.352;2022-09-02T03:16:26;24.18;43.93
65371;DHT22;58485;59.934;30.352;2022-09-02T03:17:19;24.17;43.93
65371;DHT22;58485;59.934;30.352;2022-09-02T03:18:10;24.18;43.92
65371;DHT22;58485;59.934;30.352;2022-09-02T03:19:03;24.18;43.95
65371;DHT22;58485;59.934;30.352;2022-09-02T03:19:54;24.17;43.97
65371;DHT22;58485;59.934;30.352;2022-09-02T03:20:47;24.17;43.96
65371;DHT22;58485;59.934;30.352;2022-09-02T03:21:39;24.17;43.98
65371;DHT22;58485;59.934;30.352;2022-09-02T03:22:32;24.17;43.96
65371;DHT22;58485;59.934;30.352;2022-09-02T03:23:23;24.16;43.95
65371;DHT22;58485;59.934;30.352;2022-09-02T03:24:15;24.16;43.97
65371;DHT22;58485;59.934;30.352;2022-09-02T03:25:08;24.16;43.95
65371;DHT22;58485;59.934;30.352;2022-09-02T03:26:00;24.16;43.94
65371;DHT22;58485;59.934;30.352;2022-09-02T03:26:53;24.16;43.95
65371;DHT22;58485;59.934;30.352;2022-09-02T03:27:45;24.16;43.90
65371;DHT22;58485;59.934;30.352;2022-09-02T03:28:38;24.16;43.93
65371;DHT22;58485;59.934;30.352;2022-09-02T03:29:29;24.16;43.94
65371;DHT22;58485;59.934;30.352;2022-09-02T03:30:24;24.16;44.03
65371;DHT22;58485;59.934;30.352;2022-09-02T03:31:18;24.15;43.99
65371;DHT22;58485;59.934;30.352;2022-09-02T03:32:11;24.15;43.99
65371;DHT22;58485;59.934;30.352;2022-09-02T03:33:03;24.16;43.96
65371;DHT22;58485;59.934;30.352;2022-09-02T03:33:55;24.16;43.96
65371;DHT22;58485;59.934;30.352;2022-09-02T03:34:47;24.14;44.00
65371;DHT22;58485;59.934;30.352;2022-09-02T03:35:40;24.15;44.03
65371;DHT22;58485;59.934;30.352;2022-09-02T03:36:36;24.16;44.12
65371;DHT22;58485;59.934;30.352;2022-09-02T03:37:29;24.14;43.97
65371;DHT22;58485;59.934;30.352;2022-09-02T03:38:20;24.16;43.95
65371;DHT22;58485;59.934;30.352;2022-09-02T03:39:13;24.14;43.92
65371;DHT22;58485;59.934;30.352;2022-09-02T03:40:07;24.14;43.87
65371;DHT22;58485;59.934;30.352;2022-09-02T03:41:01;24.15;43.95
65371;DHT22;58485;59.934;30.352;2022-09-02T03:41:54;24.14;44.03
65371;DHT22;58485;59.934;30.352;2022-09-02T03:42:46;24.14;44.02
65371;DHT22;58485;59.934;30.352;2022-09-02T03:43:37;24.14;44.01
65371;DHT22;58485;59.934;30.352;2022-09-02T03:44:29;24.14;43.99
65371;DHT22;58485;59.934;30.352;2022-09-02T03:45:23;24.14;43.99
65371;DHT22;58485;59.934;30.352;2022-09-02T03:46:15;24.13;43.96
65371;DHT22;58485;59.934;30.352;2022-09-02T03:47:07;24.14;43.97
65371;DHT22;58485;59.934;30.352;2022-09-02T03:47:59;24.13;43.96
65371;DHT22;58485;59.934;30.352;2022-09-02T03:48:50;24.13;43.94
65371;DHT22;58485;59.934;30.352;2022-09-02T03:49:43;24.13;43.95
65371;DHT22;58485;59.934;30.352;2022-09-02T03:50:36;24.13;43.93
65371;DHT22;58485;59.934;30.352;2022-09-02T03:51:30;24.13;43.91
65371;DHT22;58485;59.934;30.352;2022-09-02T03:52:22;24.13;43.92
65371;DHT22;58485;59.934;30.352;2022-09-02T03:53:15;24.13;43.91
65371;DHT22;58485;59.934;30.352;2022-09-02T03:54:06;24.11;43.90
65371;DHT22;58485;59.934;30.352;2022-09-02T03:54:59;24.12;43.92
65371;DHT22;58485;59.934;30.352;2022-09-02T03:55:50;24.11;43.92
65371;DHT22;58485;59.934;30.352;2022-09-02T03:56:42;24.12;43.97
65371;DHT22;58485;59.934;30.352;2022-09-02T03:57:35;24.12;44.02
65371;DHT22;58485;59.934;30.352;2022-09-02T03:58:27;24.11;43.99
65371;DHT22;58485;59.934;30.352;2022-09-02T03:59:19;24.11;43.95
65371;DHT22;58485;59.934;30.352;2022-09-02T04:00:12;24.11;43.98
65371;DHT22;58485;59.934;30.352;2022-09-02T04:01:06;24.11;43.96
65371;DHT22;58485;59.934;30.352;2022-09-02T04:01:58;24.10;43.94
65371;DHT22;58485;59.934;30.352;2022-09-02T04:02:52;24.11;43.94
65371;DHT22;58485;59.934;30.352;2022-09-02T04:03:45;24.10;43.96
65371;DHT22;58485;59.934;30.352;2022-09-02T04:04:37;24.11;43.93
65371;DHT22;58485;59.934;30.352;2022-09-02T04:05:28;24.10;43.95
65371;DHT22;58485;59.934;30.352;2022-09-02T04:06:22;24.10;43.95
65371;DHT22;58485;59.934;30.352;2022-09-02T04:07:15;24.11;43.96
65371;DHT22;58485;59.934;30.352;2022-09-02T04:08:07;24.10;43.96
65371;DHT22;58485;59.934;30.352;2022-09-02T04:08:58;24.09;43.92
65371;DHT22;58485;59.934;30.352;2022-09-02T04:09:51;24.10;43.92
65371;DHT22;58485;59.934;30.352;2022-09-02T04:10:42;24.09;43.93
65371;DHT22;58485;59.934;30.352;2022-09-02T04:11:34;24.09;43.96
65371;DHT22;58485;59.934;30.352;2022-09-02T04:12:27;24.09;43.94
65371;DHT22;58485;59.934;30.352;2022-09-02T04:13:21;24.10;43.97
65371;DHT22;58485;59.934;30.352;2022-09-02T04:14:12;24.08;43.98
65371;DHT22;58485;59.934;30.352;2022-09-02T04:15:06;24.09;44.05
65371;DHT22;58485;59.934;30.352;2022-09-02T04:15:58;24.08;44.03
65371;DHT22;58485;59.934;30.352;2022-09-02T04:16:50;24.08;44.03
65371;DHT22;58485;59.934;30.352;2022-09-02T04:17:42;24.08;44.05
65371;DHT22;58485;59.934;30.352;2022-09-02T04:18:34;24.08;44.04
65371;DHT22;58485;59.934;30.352;2022-09-02T04:19:25;24.08;44.05
65371;DHT22;58485;59.934;30.352;2022-09-02T04:20:18;24.06;44.07
65371;DHT22;58485;59.934;30.352;2022-09-02T04:21:10;24.08;44.04
65371;DHT22;58485;59.934;30.352;2022-09-02T04:22:02;24.08;44.03
65371;DHT22;58485;59.934;30.352;2022-09-02T04:22:54;24.06;44.00
65371;DHT22;58485;59.934;30.352;2022-09-02T04:23:46;24.06;43.94
65371;DHT22;58485;59.934;30.352;2022-09-02T04:24:38;24.06;43.96
65371;DHT22;58485;59.934;30.352;2022-09-02T04:25:29;24.05;43.96
65371;DHT22;58485;59.934;30.352;2022-09-02T04:26:22;24.08;43.97
65371;DHT22;58485;59.934;30.352;2022-09-02T04:27:13;24.05;44.03
65371;DHT22;58485;59.934;30.352;2022-09-02T04:28:05;24.05;44.08
65371;DHT22;58485;59.934;30.352;2022-09-02T04:28:58;24.05;44.14
65371;DHT22;58485;59.934;30.352;2022-09-02T04:29:51;24.05;44.17
65371;DHT22;58485;59.934;30.352;2022-09-02T04:30:43;24.05;44.19
65371;DHT22;58485;59.934;30.352;2022-09-02T04:31:35;24.05;44.16
65371;DHT22;58485;59.934;30.352;2022-09-02T04:32:26;24.04;44.19
65371;DHT22;58485;59.934;30.352;2022-09-02T04:33:18;24.04;44.17
65371;DHT22;58485;59.934;30.352;2022-09-02T04:34:10;24.04;44.23
65371;DHT22;58485;59.934;30.352;2022-09-02T04:35:02;24.04;44.26
65371;DHT22;58485;59.934;30.352;2022-09-02T04:35:54;24.05;44.24
65371;DHT22;58485;59.934;30.352;2022-09-02T04:36:46;24.05;44.25
65371;DHT22;58485;59.934;30.352;2022-09-02T04:37:37;24.05;44.19
65371;DHT22;58485;59.934;30.352;2022-09-02T04:38:30;24.03;44.20
65371;DHT22;58485;59.934;30.352;2022-09-02T04:39:21;24.03;44.22
65371;DHT22;58485;59.934;30.352;2022-09-02T04:40:14;24.03;44.23
65371;DHT22;58485;59.934;30.352;2022-09-02T04:41:06;24.04;44.23
65371;DHT22;58485;59.934;30.352;2022-09-02T04:41:59;24.03;44.25
65371;DHT22;58485;59.934;30.352;2022-09-02T04:42:50;24.04;44.29
65371;DHT22;58485;59.934;30.352;2022-09-02T04:43:43;24.03;44.26
65371;DHT22;58485;59.934;30.352;2022-09-02T04:44:36;24.03;44.29
65371;DHT22;58485;59.934;30.352;2022-09-02T04:45:28;24.03;44.32
65371;DHT22;58485;59.934;30.352;2022-09-02T04:46:19;24.03;44.36
65371;DHT22;58485;59.934;30.352;2022-09-02T04:47:11;24.02;44.33
65371;DHT22;58485;59.934;30.352;2022-09-02T04:48:03;24.03;44.36
65371;DHT22;58485;59.934;30.352;2022-09-02T04:48:55;24.02;44.37
65371;DHT22;58485;59.934;30.352;2022-09-02T04:49:47;24.01;44.37
65371;DHT22;58485;59.934;30.352;2022-09-02T04:50:40;24.03;44.38
65371;DHT22;58485;59.934;30.352;2022-09-02T04:51:31;24.02;44.35
65371;DHT22;58485;59.934;30.352;2022-09-02T04:52:24;24.03;44.32
65371;DHT22;58485;59.934;30.352;2022-09-02T04:53:16;24.02;44.35
65371;DHT22;58485;59.934;30.352;2022-09-02T04:54:08;24.02;44.40
65371;DHT22;58485;59.934;30.352;2022-09-02T04:55:00;24.02;44.40
65371;DHT22;58485;59.934;30.352;2022-09-02T04:55:54;24.02;44.45
65371;DHT22;58485;59.934;30.352;2022-09-02T04:56:45;24.02;44.45
65371;DHT22;58485;59.934;30.352;2022-09-02T04:57:37;24.02;44.41
65371;DHT22;58485;59.934;30.352;2022-09-02T04:58:29;24.03;44.40
65371;DHT22;58485;59.934;30.352;2022-09-02T04:59:21;24.03;44.42
65371;DHT22;58485;59.934;30.352;2022-09-02T05:00:14;24.03;44.42
65371;DHT22;58485;59.934;30.352;2022-09-02T05:01:09;24.03;44.41
65371;DHT22;58485;59.934;30.352;2022-09-02T05:02:03;24.03;44.37
65371;DHT22;58485;59.934;30.352;2022-09-02T05:02:55;24.03;44.35
65371;DHT22;58485;59.934;30.352;2022-09-02T05:03:46;24.03;44.36
65371;DHT22;58485;59.934;30.352;2022-09-02T05:04:39;24.02;44.33
65371;DHT22;58485;59.934;30.352;2022-09-02T05:05:30;24.04;44.31
65371;DHT22;58485;59.934;30.352;2022-09-02T05:06:24;24.02;44.29
65371;DHT22;58485;59.934;30.352;2022-09-02T05:07:16;24.03;44.31
65371;DHT22;58485;59.934;30.352;2022-09-02T05:08:09;24.04;44.35
65371;DHT22;58485;59.934;30.352;2022-09-02T05:09:03;24.03;44.33
65371;DHT22;58485;59.934;30.352;2022-09-02T05:09:56;24.02;44.35
65371;DHT22;58485;59.934;30.352;2022-09-02T05:10:47;24.02;44.38
65371;DHT22;58485;59.934;30.352;2022-09-02T05:11:40;24.04;44.38
65371;DHT22;58485;59.934;30.352;2022-09-02T05:12:31;24.03;44.40
65371;DHT22;58485;59.934;30.352;2022-09-02T05:13:24;24.02;44.41
65371;DHT22;58485;59.934;30.352;2022-09-02T05:14:16;24.02;44.43
65371;DHT22;58485;59.934;30.352;2022-09-02T05:15:10;24.02;44.46
65371;DHT22;58485;59.934;30.352;2022-09-02T05:16:03;24.02;44.48
65371;DHT22;58485;59.934;30.352;2022-09-02T05:16:56;24.00;44.49
65371;DHT22;58485;59.934;30.352;2022-09-02T05:17:47;24.01;44.45
65371;DHT22;58485;59.934;30.352;2022-09-02T05:18:39;24.02;44.42
65371;DHT22;58485;59.934;30.352;2022-09-02T05:19:30;24.01;44.43
65371;DHT22;58485;59.934;30.352;2022-09-02T05:20:23;24.03;44.45
65371;DHT22;58485;59.934;30.352;2022-09-02T05:21:15;24.02;44.46
65371;DHT22;58485;59.934;30.352;2022-09-02T05:22:08;24.02;44.49
65371;DHT22;58485;59.934;30.352;2022-09-02T05:22:59;24.03;44.51
65371;DHT22;58485;59.934;30.352;2022-09-02T05:23:52;24.01;44.55
65371;DHT22;58485;59.934;30.352;2022-09-02T05:24:43;24.01;44.51
65371;DHT22;58485;59.934;30.352;2022-09-02T05:25:36;24.00;44.51
65371;DHT22;58485;59.934;30.352;2022-09-02T05:26:27;24.00;44.54
65371;DHT22;58485;59.934;30.352;2022-09-02T05:27:20;24.01;44.54